• Join FlightAware (Why Join?)
  • Login
  • US Flag 
01:14AM EDT


 

Airport Tracker/Info


-or-


 

Live Flight TrackerFlight Track Log ✈ N911TW ✈ 18-Aug-2013 ✈ KDKX - KPTK

Flight Track Log - Related Links

Times and Time Zones

All times are in EDT time to prevent confusion due to time zone crossing. See the N911TW flight status page for this flight to view local times or setup timezone preferences in your user account.

Time Position Orientation Groundspeed Altitude Reporting Facility
EDT Latitude Longitude Course Direction KTS MPH feet Rate Location/Type
12:42PM 35.9847 -83.7942 71° East 113 130 2,800  Level Indianapolis Center
12:43PM 36.0058 -83.7922 North 127 146 3,300 900 Climbing Atlanta Center
12:44PM 36.0414 -83.8025 347° North 99 114 4,200 900 Climbing Atlanta Center
12:45PM 36.0789 -83.8050 357° North 124 143 5,100 840 Climbing Atlanta Center
12:46PM 36.1206 -83.8075 357° North 136 157 5,900 660 Climbing Atlanta Center
12:46PM 36.1403 -83.8042 North 147 169 6,200 900 Climbing Indianapolis Center
12:47PM 36.1922 -83.8064 358° North 154 177 7,400 960 Climbing Indianapolis Center
12:48PM 36.2358 -83.8083 358° North 156 180 8,200 780 Climbing Indianapolis Center
12:49PM 36.2839 -83.8119 357° North 164 189 9,000 780 Climbing Indianapolis Center
12:50PM 36.3286 -83.8133 359° North 164 189 9,800 660 Climbing Indianapolis Center
12:51PM 36.3739 -83.8144 359° North 163 188 10,400 660 Climbing Indianapolis Center
12:52PM 36.4200 -83.8178 357° North 164 189 11,200 720 Climbing Indianapolis Center
12:53PM 36.4767 -83.8214 357° North 168 193 12,000 360 Climbing Indianapolis Center
12:54PM 36.5281 -83.8228 359° North 176 203 12,000  Level Indianapolis Center
12:55PM 36.5831 -83.8269 357° North 189 217 12,000  Level Indianapolis Center
12:56PM 36.6361 -83.8294 358° North 192 221 12,000  Level Indianapolis Center
12:57PM 36.6886 -83.8328 357° North 189 217 12,000  Level Indianapolis Center
12:58PM 36.7397 -83.8358 357° North 185 213 12,000  Level Indianapolis Center
01:00PM 36.7925 -83.8383 358° North 187 215 12,000  Level Indianapolis Center
01:01PM 36.8533 -83.8422 357° North 187 215 12,000  Level Indianapolis Center
01:02PM 36.9056 -83.8447 358° North 187 215 12,000  Level Indianapolis Center
01:03PM 36.9592 -83.8478 357° North 190 219 12,000  Level Indianapolis Center
01:04PM 37.0117 -83.8500 358° North 189 217 12,000  Level Indianapolis Center
01:05PM 37.0631 -83.8531 357° North 186 214 12,000  Level Indianapolis Center
01:06PM 37.1158 -83.8561 357° North 187 215 12,000  Level Indianapolis Center
01:07PM 37.1764 -83.8600 357° North 186 214 12,000  Level Indianapolis Center
01:08PM 37.2278 -83.8636 357° North 185 213 12,000  Level Indianapolis Center
01:09PM 37.2806 -83.8656 358° North 188 216 12,000  Level Indianapolis Center
01:10PM 37.3333 -83.8686 357° North 189 217 12,000  Level Indianapolis Center
01:11PM 37.3861 -83.8711 358° North 188 216 12,000  Level Indianapolis Center
01:12PM 37.4386 -83.8739 358° North 187 215 12,000  Level Indianapolis Center
01:13PM 37.4911 -83.8764 358° North 187 215 12,000  Level Indianapolis Center
01:14PM 37.5519 -83.8794 358° North 187 215 12,100  Climbing Indianapolis Center
01:15PM 37.6042 -83.8836 356° North 187 215 12,000 -60 Descending Indianapolis Center
01:16PM 37.6575 -83.8872 357° North 189 217 12,000  Level Indianapolis Center
01:17PM 37.7103 -83.8897 358° North 190 219 12,000  Level Indianapolis Center
01:18PM 37.7636 -83.8928 357° North 190 219 12,000  Level Indianapolis Center
01:19PM 37.8178 -83.8961 357° North 192 221 12,000  Level Indianapolis Center
01:20PM 37.8794 -83.8989 358° North 189 217 12,000  Level Indianapolis Center
01:21PM 37.9311 -83.9022 357° North 187 215 12,000  Level Indianapolis Center
01:22PM 37.9858 -83.9042 358° North 193 222 12,000  Level Indianapolis Center
01:23PM 38.0389 -83.9075 357° North 191 220 12,000  Level Indianapolis Center
01:24PM 38.0919 -83.9108 357° North 192 221 12,000  Level Indianapolis Center
01:25PM 38.1467 -83.9128 358° North 196 226 12,000  Level Indianapolis Center
01:26PM 38.2000 -83.9167 357° North 193 222 12,000  Level Indianapolis Center
01:27PM 38.2622 -83.9194 358° North 193 222 12,000  Level Indianapolis Center
01:28PM 38.3156 -83.9214 358° North 193 222 12,000  Level Indianapolis Center
01:29PM 38.3669 -83.9258 356° North 188 216 12,000  Level Indianapolis Center
01:30PM 38.4200 -83.9281 358° North 188 216 12,000  Level Indianapolis Center
01:31PM 38.4719 -83.9319 357° North 187 215 12,000  Level Indianapolis Center
01:32PM 38.5244 -83.9347 358° North 188 216 12,000  Level Indianapolis Center
01:34PM 38.5769 -83.9369 358° North 187 215 12,000  Level Indianapolis Center
01:35PM 38.6383 -83.9411 357° North 187 215 12,000  Level Indianapolis Center
01:36PM 38.6906 -83.9433 358° North 187 215 12,000  Level Indianapolis Center
01:37PM 38.7419 -83.9475 356° North 184 212 12,000  Level Indianapolis Center
01:38PM 38.7944 -83.9503 358° North 184 212 12,000  Level Indianapolis Center
01:39PM 38.8458 -83.9525 358° North 183 211 12,000  Level Indianapolis Center
01:40PM 38.8981 -83.9556 357° North 185 213 12,000  Level Indianapolis Center
01:41PM 38.9506 -83.9594 357° North 187 215 12,000  Level Indianapolis Center
01:42PM 39.0039 -83.9625 357° North 190 219 12,000  Level Indianapolis Center
01:43PM 39.0553 -83.9653 358° North 185 213 12,000  Level Indianapolis Center
01:44PM 39.1083 -83.9681 358° North 188 216 12,000  Level Indianapolis Center
01:45PM 39.1686 -83.9719 357° North 183 211 12,000  Level Indianapolis Center
01:46PM 39.2208 -83.9756 357° North 186 214 12,000  Level Indianapolis Center
01:47PM 39.2714 -83.9781 358° North 181 208 12,000  Level Indianapolis Center
01:48PM 39.3178 -83.9814 357° North 180 207 12,000  Level Indianapolis Center
01:49PM 39.3769 -83.9844 358° North 181 208 12,000  Level Indianapolis Center
01:50PM 39.4250 -83.9872 357° North 185 213 12,000  Level Indianapolis Center
01:51PM 39.4758 -83.9908 357° North 185 213 12,000  Level Indianapolis Center
01:52PM 39.5281 -83.9944 357° North 185 213 12,000  Level Indianapolis Center
01:53PM 39.5800 -83.9969 358° North 184 212 12,000  Level Indianapolis Center
01:54PM 39.6406 -84.0011 357° North 185 213 12,000  Level Indianapolis Center
01:55PM 39.6911 -84.0036 358° North 181 208 12,000  Level Indianapolis Center
01:56PM 39.7422 -84.0064 358° North 181 208 12,000  Level Indianapolis Center
01:57PM 39.7931 -84.0100 357° North 181 208 12,000  Level Indianapolis Center
01:58PM 39.8442 -84.0131 357° North 181 208 12,000 -60 Level Indianapolis Center
01:59PM 39.8953 -84.0158 358° North 182 209 11,900 -60 Descending Indianapolis Center
02:00PM 39.9467 -84.0189 357° North 183 211 11,900  Level Indianapolis Center
02:01PM 39.9981 -84.0217 358° North 184 212 11,900  Level Indianapolis Center
02:02PM 40.0506 -84.0250 357° North 186 214 11,900  Level Indianapolis Center
02:03PM 40.1028 -84.0278 358° North 188 216 11,900  Level Indianapolis Center
02:04PM 40.1556 -84.0306 358° North 188 216 11,900  Level Indianapolis Center
02:05PM 40.2161 -84.0339 358° North 187 215 11,900  Level Indianapolis Center
02:06PM 40.2689 -84.0378 357° North 188 216 11,900  Level Indianapolis Center
02:07PM 40.3203 -84.0403 358° North 184 212 11,900  Level Indianapolis Center
02:08PM 40.3739 -84.0439 357° North 190 219 11,900  Level Indianapolis Center
02:09PM 40.4261 -84.0469 357° North 189 217 11,900  Level Indianapolis Center
02:10PM 40.4783 -84.0506 357° North 187 215 11,900  Level Indianapolis Center
02:12PM 40.5300 -84.0550 356° North 184 212 11,900  Level Indianapolis Center
02:13PM 40.5822 -84.0561 359° North 186 214 11,900  Level Indianapolis Center
02:14PM 40.6336 -84.0603 356° North 185 213 11,900  Level Indianapolis Center
02:15PM 40.6944 -84.0628 358° North 187 215 11,900  Level Indianapolis Center
02:16PM 40.7461 -84.0658 357° North 185 213 11,900  Level Indianapolis Center
02:17PM 40.7983 -84.0692 357° North 185 213 11,900  Level Indianapolis Center
02:18PM 40.8497 -84.0722 357° North 184 212 12,000  Climbing Indianapolis Center
02:19PM 40.9014 -84.0758 357° North 184 212 12,000  Level Indianapolis Center
02:20PM 40.9525 -84.0789 357° North 181 208 12,000  Level Indianapolis Center
02:21PM 41.0053 -84.0825 357° North 188 216 12,000  Level Indianapolis Center
02:22PM 41.0550 -84.0842 359° North 184 212 12,000  Level Indianapolis Center
02:23PM 41.1081 -84.0881 357° North 188 216 12,000  Level Indianapolis Center
02:24PM 41.1667 -84.0908 358° North 181 208 12,000  Level Indianapolis Center
02:25PM 41.2197 -84.0936 358° North 186 214 12,000  Level Indianapolis Center
02:26PM 41.2639 -84.1000 354° North 181 208 12,000  Level Cleveland Center
02:27PM 41.3117 -84.1025 358° North 181 208 12,000 -180 Level Cleveland Center
02:28PM 41.3678 -84.1083 356° North 181 208 11,700 -420 Descending Cleveland Center
02:29PM 41.4219 -84.1114 358° North 181 208 11,200 -540 Descending Cleveland Center
02:30PM 41.4761 -84.1142 358° North 181 208 10,700 -600 Descending Cleveland Center
02:31PM 41.5322 -84.1172 358° North 186 214 10,100 -660 Descending Cleveland Center
02:32PM 41.5883 -84.1231 356° North 191 220 9,400 -720 Descending Cleveland Center
02:33PM 41.6425 -84.1233 360° North 197 227 8,700 -720 Descending Cleveland Center
02:33PM 41.6736 -84.1278 354° North 199 229 8,300 -780 Descending Cleveland Center
02:34PM 41.7031 -84.1267 North 197 227 7,900 -720 Descending Cleveland Center
02:35PM 41.7528 -84.1294 358° North 197 227 7,300 -480 Descending Cleveland Center
02:36PM 41.8028 -84.1350 355° North 197 227 7,000 -180 Descending Cleveland Center
02:37PM 41.8528 -84.1378 358° North 186 214 7,000  Level Cleveland Center
02:38PM 41.9069 -84.1408 358° North 169 194 7,000  Level Cleveland Center
02:39PM 41.9567 -84.1464 355° North 173 199 7,000 -240 Level Cleveland Center
02:40PM 42.0072 -84.1267 16° North 185 213 6,600 -480 Descending Cleveland Center
02:41PM 42.0603 -84.1044 17° North 184 212 6,100 -540 Descending Cleveland Center
02:42PM 42.1172 -84.0825 16° North 184 212 5,500 -480 Descending Cleveland Center
02:43PM 42.1614 -84.0625 19° North 182 209 5,100 -480 Descending Cleveland Center
02:44PM 42.2100 -84.0456 14° North 183 211 4,600 -540 Descending Cleveland Center
02:45PM 42.2628 -84.0231 18° North 183 211 4,100 -360 Descending Cleveland Center
02:46PM 42.3031 -84.0056 18° North 174 200 4,000 -60 Descending Cleveland Center
02:47PM 42.3433 -83.9825 23° Northeast 173 199 4,000  Level Cleveland Center
02:48PM 42.3739 -83.9336 50° Northeast 169 194 4,000  Level Cleveland Center
02:49PM 42.4086 -83.8819 48° Northeast 167 192 4,000  Level Cleveland Center
02:50PM 42.4453 -83.8417 39° Northeast 166 191 4,000 -180 Level Cleveland Center
02:51PM 42.4800 -83.7983 43° Northeast 178 205 3,700 -480 Descending Cleveland Center
02:52PM 42.5250 -83.7472 40° Northeast 181 208 3,100 -540 Descending Cleveland Center
02:53PM 42.5556 -83.6953 51° Northeast 177 204 2,600 -300 Descending Cleveland Center
02:54PM 42.5861 -83.6514 47° Northeast 157 181 2,500 -60 Descending Cleveland Center
02:55PM 42.6081 -83.6047 57° Northeast 142 163 2,500 -120 Level Cleveland Center
02:56PM 42.6322 -83.5633 52° Northeast 148 170 2,300 -300 Descending Cleveland Center
02:57PM 42.6519 -83.5247 55° Northeast 139 160 2,000 -240 Descending Cleveland Center
02:58PM 42.6653 -83.4858 65° Northeast 88 101 1,900 -360 Descending Cleveland Center
02:59PM 42.6642 -83.4464 92° East 97 112 1,300 -600 Descending Cleveland Center